Time;durP1;ratioP1;P1;durP2;ratioP2;P2;SDS_P1;SDS_P2;PMS_P1;PMS_P2;Temp;Humidity;BMP_temperature;BMP_pressure;BME280_temperature;BME280_humidity;BME280_pressure;Samples;Min_cycle;Max_cycle;Signal;HPM_P1;HPM_P2
2023/12/13 00:01:43;;;;;;;3.17;3.00;;;12.50;99.90;;;;;;5084970;28;20201;-65
2023/12/13 00:04:09;;;;;;;2.50;2.40;;;12.50;99.90;;;;;;5090382;28;20663;-64
2023/12/13 00:06:34;;;;;;;3.00;2.90;;;12.50;99.90;;;;;;5072192;28;20672;-65
2023/12/13 00:09:04;;;;;;;2.37;2.27;;;12.50;99.90;;;;;;5071523;28;20678;-65
2023/12/13 00:11:29;;;;;;;2.67;2.57;;;12.50;99.90;;;;;;5072558;28;20213;-65
2023/12/13 00:13:55;;;;;;;2.73;2.63;;;12.50;99.90;;;;;;5078304;28;20426;-65
2023/12/13 00:16:23;;;;;;;3.43;3.23;;;12.50;99.90;;;;;;5074558;28;20427;-66
2023/12/13 00:18:49;;;;;;;2.80;2.60;;;12.50;99.90;;;;;;5072745;28;20224;-60
2023/12/13 00:21:17;;;;;;;3.63;3.00;;;12.40;99.90;;;;;;5070581;28;20988;-66
2023/12/13 00:23:47;;;;;;;3.10;2.80;;;12.40;99.90;;;;;;5072189;28;20408;-66
2023/12/13 00:26:17;;;;;;;4.00;2.90;;;12.40;99.90;;;;;;5080591;28;20747;-66
2023/12/13 00:28:43;;;;;;;2.80;2.60;;;12.40;99.90;;;;;;5081480;28;20417;-66
2023/12/13 00:31:12;;;;;;;3.27;2.97;;;12.40;99.90;;;;;;5076162;28;20818;-66
2023/12/13 00:33:39;;;;;;;3.03;2.83;;;12.40;99.90;;;;;;5087786;28;20429;-66
2023/12/13 00:36:05;;;;;;;3.50;3.30;;;12.40;99.90;;;;;;5075939;28;20419;-66
2023/12/13 00:38:31;;;;;;;4.10;3.67;;;12.50;99.90;;;;;;5087485;28;20508;-66
2023/12/13 00:40:57;;;;;;;4.10;3.80;;;12.30;99.90;;;;;;5089627;28;20799;-65
2023/12/13 00:43:23;;;;;;;3.40;3.30;;;12.30;99.90;;;;;;5083811;28;20443;-66
2023/12/13 00:45:49;;;;;;;3.90;3.80;;;12.30;99.90;;;;;;5075229;28;20313;-66
2023/12/13 00:48:15;;;;;;;3.57;3.37;;;12.40;99.90;;;;;;5074936;28;20174;-66
2023/12/13 00:50:40;;;;;;;4.80;3.70;;;12.30;99.90;;;;;;5093592;28;20518;-66
2023/12/13 00:53:07;;;;;;;3.53;3.33;;;12.30;99.90;;;;;;5107692;28;20753;-66
2023/12/13 00:55:32;;;;;;;3.47;3.27;;;12.30;99.90;;;;;;5099709;28;20183;-66
2023/12/13 00:57:58;;;;;;;3.60;3.40;;;12.20;99.90;;;;;;5093096;28;20432;-66
2023/12/13 01:00:24;;;;;;;3.93;3.73;;;12.20;99.90;;;;;;5093244;28;20205;-67
2023/12/13 01:02:50;;;;;;;4.07;3.87;;;12.10;99.90;;;;;;5090589;28;20185;-66
2023/12/13 01:05:16;;;;;;;4.10;3.80;;;12.10;99.90;;;;;;5083948;28;20536;-66
2023/12/13 01:07:42;;;;;;;3.63;3.43;;;12.20;99.90;;;;;;5107156;28;20189;-66
2023/12/13 01:10:08;;;;;;;3.63;3.43;;;12.20;99.90;;;;;;5096892;28;20410;-66
2023/12/13 01:12:34;;;;;;;4.17;3.83;;;12.20;99.90;;;;;;5090740;28;20415;-66
2023/12/13 01:14:59;;;;;;;3.67;3.37;;;12.20;99.90;;;;;;5088676;28;20980;-64
2023/12/13 01:17:25;;;;;;;3.70;3.50;;;12.20;99.90;;;;;;5093832;28;20178;-66
2023/12/13 01:19:52;;;;;;;3.53;3.20;;;12.20;99.90;;;;;;5093280;28;20176;-65
2023/12/13 01:22:21;;;;;;;7.43;4.37;;;12.20;99.90;;;;;;5079787;28;20482;-66
2023/12/13 01:24:46;;;;;;;3.57;3.37;;;12.20;99.90;;;;;;5086111;28;20434;-65
2023/12/13 01:27:12;;;;;;;3.60;3.40;;;12.20;99.90;;;;;;5085765;28;20659;-66
2023/12/13 01:29:38;;;;;;;3.40;3.10;;;12.10;99.90;;;;;;5092733;28;20424;-66
2023/12/13 01:32:04;;;;;;;3.30;3.10;;;12.10;99.90;;;;;;5093418;28;20420;-66
2023/12/13 01:34:30;;;;;;;3.87;3.67;;;12.10;99.90;;;;;;5089541;28;20173;-66
2023/12/13 01:36:56;;;;;;;6.17;3.20;;;12.10;99.90;;;;;;5089487;28;20639;-65
2023/12/13 01:39:22;;;;;;;4.07;3.20;;;12.10;99.90;;;;;;5092103;28;20447;-66
2023/12/13 01:41:48;;;;;;;3.20;3.00;;;12.00;99.90;;;;;;5092900;28;20213;-66
2023/12/13 01:44:13;;;;;;;3.70;3.33;;;12.10;99.90;;;;;;5106901;28;21000;-66
2023/12/13 01:46:40;;;;;;;3.43;3.23;;;12.00;99.90;;;;;;5075111;28;20459;-66
2023/12/13 01:49:08;;;;;;;3.47;3.27;;;12.00;99.90;;;;;;5072964;28;20181;-66
2023/12/13 01:51:35;;;;;;;3.53;3.10;;;12.10;99.90;;;;;;5074141;28;20782;-66
2023/12/13 01:54:09;;;;;;;4.00;3.67;;;12.10;99.90;;;;;;5078911;28;20431;-66
2023/12/13 01:56:38;;;;;;;3.13;2.93;;;12.10;99.90;;;;;;5074373;28;20461;-66
2023/12/13 01:59:04;;;;;;;3.67;3.40;;;12.10;99.90;;;;;;5091443;27;20432;-65
2023/12/13 02:01:31;;;;;;;4.20;3.77;;;12.10;99.90;;;;;;5091840;28;20452;-66
2023/12/13 02:03:56;;;;;;;2.97;2.87;;;12.10;99.90;;;;;;5083808;28;20188;-65
2023/12/13 02:06:22;;;;;;;4.20;3.80;;;12.10;99.90;;;;;;5073798;28;20785;-66
2023/12/13 02:08:48;;;;;;;3.63;3.10;;;12.10;99.90;;;;;;5073980;28;20195;-66
2023/12/13 02:11:14;;;;;;;3.40;3.20;;;12.10;99.90;;;;;;5082517;28;20177;-66
2023/12/13 02:13:39;;;;;;;3.77;3.50;;;12.00;99.90;;;;;;5073706;28;20202;-66
2023/12/13 02:16:06;;;;;;;5.13;3.30;;;12.10;99.90;;;;;;5084226;28;20330;-65
2023/12/13 02:18:32;;;;;;;4.20;3.80;;;12.10;99.90;;;;;;5077939;28;20800;-65
2023/12/13 02:20:58;;;;;;;3.47;3.10;;;12.00;99.90;;;;;;5082020;28;20450;-65
2023/12/13 02:23:23;;;;;;;5.00;3.60;;;12.10;99.90;;;;;;5126647;27;20424;-66
2023/12/13 02:26:01;;;;;;;3.87;3.60;;;12.10;99.90;;;;;;5077515;28;20269;-66
2023/12/13 02:28:28;;;;;;;5.20;3.27;;;12.10;99.90;;;;;;5082707;28;20435;-66
2023/12/13 02:30:56;;;;;;;3.47;3.27;;;12.10;99.90;;;;;;5084651;28;20908;-65
2023/12/13 02:33:24;;;;;;;3.77;3.47;;;12.20;99.90;;;;;;5079442;28;20917;-65
2023/12/13 02:35:56;;;;;;;3.70;3.40;;;12.20;99.90;;;;;;5088159;28;20510;-65
2023/12/13 02:38:22;;;;;;;5.27;3.50;;;12.20;99.90;;;;;;5091577;28;20447;-65
2023/12/13 02:40:47;;;;;;;3.60;3.40;;;12.20;99.90;;;;;;5091347;28;20459;-65
2023/12/13 02:43:13;;;;;;;3.93;3.63;;;12.10;99.90;;;;;;5090418;28;20294;-65
2023/12/13 02:45:39;;;;;;;3.73;3.53;;;12.20;99.90;;;;;;5078362;28;20208;-65
2023/12/13 02:48:05;;;;;;;4.10;3.80;;;12.20;99.90;;;;;;5080262;28;20811;-65
2023/12/13 02:50:31;;;;;;;3.80;3.60;;;12.20;99.90;;;;;;5082804;28;20415;-65
2023/12/13 02:52:57;;;;;;;4.20;3.80;;;12.20;99.90;;;;;;5080932;28;20423;-65
2023/12/13 02:55:23;;;;;;;4.70;3.97;;;12.20;99.90;;;;;;5092608;28;20210;-66
2023/12/13 02:57:49;;;;;;;4.37;3.87;;;12.20;99.90;;;;;;5086485;28;20817;-66
2023/12/13 03:00:14;;;;;;;4.00;3.73;;;12.30;99.90;;;;;;5084926;28;20179;-66
2023/12/13 03:02:40;;;;;;;3.60;3.27;;;12.30;99.90;;;;;;5077762;28;20185;-65
2023/12/13 03:05:07;;;;;;;4.17;3.53;;;12.30;99.90;;;;;;5092155;28;20182;-66
2023/12/13 03:07:33;;;;;;;4.77;4.13;;;12.20;99.90;;;;;;5073259;28;20499;-66
2023/12/13 03:09:59;;;;;;;3.87;3.40;;;12.20;99.90;;;;;;5094830;28;20524;-60
2023/12/13 03:12:25;;;;;;;4.10;3.73;;;12.20;99.90;;;;;;5098783;28;20453;-65
2023/12/13 03:14:51;;;;;;;3.90;3.60;;;12.30;99.90;;;;;;5100167;28;20474;-66
2023/12/13 03:17:16;;;;;;;3.50;3.20;;;12.30;99.90;;;;;;5088187;28;20186;-66
2023/12/13 03:19:42;;;;;;;3.03;2.83;;;12.10;99.90;;;;;;5093065;28;20192;-66
2023/12/13 03:22:08;;;;;;;4.03;3.67;;;12.10;99.90;;;;;;5088275;28;20731;-66
2023/12/13 03:24:35;;;;;;;3.93;2.93;;;12.20;99.90;;;;;;5090923;28;20243;-65
2023/12/13 03:27:01;;;;;;;3.37;3.27;;;12.20;99.90;;;;;;5092669;28;20255;-65
2023/12/13 03:29:27;;;;;;;3.13;2.90;;;12.20;99.90;;;;;;5098852;28;20454;-66
2023/12/13 03:31:53;;;;;;;2.80;2.67;;;12.20;99.90;;;;;;5098907;28;20183;-66
2023/12/13 03:34:19;;;;;;;6.70;3.17;;;12.20;99.90;;;;;;5086350;28;20783;-66
2023/12/13 03:36:44;;;;;;;3.40;3.10;;;12.20;99.90;;;;;;5081587;28;20176;-66
2023/12/13 03:39:10;;;;;;;3.37;3.17;;;12.20;99.90;;;;;;5105832;28;20622;-66
2023/12/13 03:41:36;;;;;;;3.23;3.00;;;12.20;99.90;;;;;;5079968;28;20207;-66
2023/12/13 03:44:02;;;;;;;3.53;3.23;;;12.30;99.90;;;;;;5075859;28;20547;-65
2023/12/13 03:46:27;;;;;;;3.67;3.40;;;12.30;99.90;;;;;;5077426;28;20224;-66
2023/12/13 03:48:53;;;;;;;3.40;3.10;;;12.30;99.90;;;;;;5089136;28;20210;-65
2023/12/13 03:51:19;;;;;;;3.10;2.93;;;12.30;99.90;;;;;;5089924;28;20229;-65
2023/12/13 03:53:45;;;;;;;3.50;3.23;;;12.30;99.90;;;;;;5111656;28;20178;-65
2023/12/13 03:56:11;;;;;;;3.70;3.33;;;12.30;99.90;;;;;;5107040;28;20430;-66
2023/12/13 03:58:37;;;;;;;3.10;3.00;;;12.30;99.90;;;;;;5097039;28;20574;-65
2023/12/13 04:01:03;;;;;;;4.40;3.13;;;12.30;99.90;;;;;;5077651;28;20451;-63
2023/12/13 04:03:28;;;;;;;3.30;3.10;;;12.10;99.90;;;;;;5105195;28;20648;-66
2023/12/13 04:05:54;;;;;;;8.00;4.93;;;12.30;99.90;;;;;;5095004;28;20180;-66
2023/12/13 04:08:20;;;;;;;3.93;3.63;;;12.30;99.90;;;;;;5097700;28;20212;-65
2023/12/13 04:10:46;;;;;;;4.93;3.47;;;12.30;99.90;;;;;;5094271;28;20178;-66
2023/12/13 04:13:11;;;;;;;3.27;3.00;;;12.30;99.90;;;;;;5108058;28;20289;-65
2023/12/13 04:15:38;;;;;;;2.93;2.73;;;12.30;99.90;;;;;;5102843;28;20233;-66
2023/12/13 04:18:04;;;;;;;2.53;2.40;;;12.30;99.90;;;;;;5100975;28;20185;-66
2023/12/13 04:20:30;;;;;;;4.60;3.00;;;12.30;99.90;;;;;;5105985;28;21024;-66
2023/12/13 04:22:56;;;;;;;3.50;3.20;;;12.30;99.90;;;;;;5107875;28;20218;-66
2023/12/13 04:25:21;;;;;;;4.40;3.80;;;12.30;99.90;;;;;;5091231;28;20455;-66
2023/12/13 04:27:47;;;;;;;3.67;3.40;;;12.20;99.90;;;;;;5100196;28;20264;-66
2023/12/13 04:30:14;;;;;;;4.30;3.50;;;12.30;99.90;;;;;;5096069;28;20184;-66
2023/12/13 04:32:40;;;;;;;3.90;3.60;;;12.30;99.90;;;;;;5088005;28;20781;-64
2023/12/13 04:35:08;;;;;;;3.57;3.37;;;12.30;99.90;;;;;;5086189;28;20418;-67
2023/12/13 04:37:34;;;;;;;3.50;3.30;;;12.30;99.90;;;;;;5089090;28;20449;-67
2023/12/13 04:40:00;;;;;;;3.67;3.37;;;12.30;99.90;;;;;;5092330;28;20847;-68
2023/12/13 04:42:26;;;;;;;3.97;3.50;;;12.30;99.90;;;;;;5113591;28;20551;-67
2023/12/13 04:44:53;;;;;;;4.80;2.90;;;12.30;99.90;;;;;;5116210;28;20498;-68
2023/12/13 04:47:19;;;;;;;4.97;3.63;;;12.20;99.90;;;;;;5098286;28;20594;-62
2023/12/13 04:49:45;;;;;;;6.93;3.60;;;12.20;99.90;;;;;;5096606;28;21877;-62
2023/12/13 04:52:11;;;;;;;3.33;3.13;;;12.10;99.90;;;;;;5114999;28;20437;-62
2023/12/13 04:54:37;;;;;;;3.40;3.10;;;12.10;99.90;;;;;;5093506;28;20421;-61
2023/12/13 04:57:04;;;;;;;4.20;3.90;;;12.10;99.90;;;;;;5080238;28;20198;-61
2023/12/13 04:59:29;;;;;;;4.40;3.27;;;12.20;99.90;;;;;;5115543;28;20450;-62
2023/12/13 05:01:56;;;;;;;7.03;3.30;;;12.20;99.90;;;;;;5113930;28;20952;-61
2023/12/13 05:04:22;;;;;;;2.63;2.43;;;12.20;99.90;;;;;;5108753;28;20193;-60
2023/12/13 05:06:48;;;;;;;3.30;2.90;;;12.30;99.90;;;;;;5075032;28;20881;-62
2023/12/13 05:09:14;;;;;;;3.77;3.57;;;12.30;99.90;;;;;;5109757;28;20423;-62
2023/12/13 05:11:40;;;;;;;3.20;3.00;;;12.30;99.90;;;;;;5112888;28;20465;-66
2023/12/13 05:14:06;;;;;;;3.60;2.70;;;12.30;99.90;;;;;;5100005;28;20459;-68
2023/12/13 05:16:32;;;;;;;6.07;3.47;;;12.40;99.90;;;;;;5095112;28;20694;-68
2023/12/13 05:18:58;;;;;;;4.17;3.73;;;12.30;99.90;;;;;;5098023;28;20427;-68
2023/12/13 05:21:24;;;;;;;3.60;3.27;;;12.40;99.90;;;;;;5097269;28;20978;-68
2023/12/13 05:23:49;;;;;;;3.87;2.80;;;12.40;99.90;;;;;;5105157;28;20176;-68
2023/12/13 05:26:15;;;;;;;5.10;3.50;;;12.30;99.90;;;;;;5108471;28;20182;-68
2023/12/13 05:28:41;;;;;;;3.77;3.00;;;12.30;99.90;;;;;;5106253;28;20179;-69
2023/12/13 05:31:20;;;;;;;5.17;3.30;;;12.30;99.90;;;;;;5074370;28;20182;-62
2023/12/13 05:33:46;;;;;;;3.50;3.30;;;12.10;99.90;;;;;;5093852;28;20200;-66
2023/12/13 05:36:12;;;;;;;3.17;2.80;;;12.10;99.90;;;;;;5097783;28;20434;-67
2023/12/13 05:38:38;;;;;;;3.70;2.73;;;12.10;99.90;;;;;;5113398;28;20417;-68
2023/12/13 05:41:04;;;;;;;2.83;2.57;;;12.10;99.90;;;;;;5113194;28;20812;-68
2023/12/13 05:43:30;;;;;;;3.47;3.00;;;12.10;99.90;;;;;;5098494;28;20186;-68
2023/12/13 05:45:56;;;;;;;3.20;2.93;;;12.10;99.90;;;;;;5105135;28;20427;-67
2023/12/13 05:48:22;;;;;;;3.30;3.00;;;12.10;99.90;;;;;;5112366;28;20431;-68
2023/12/13 05:50:47;;;;;;;4.90;3.40;;;12.10;99.90;;;;;;5112640;28;20189;-68
2023/12/13 05:53:13;;;;;;;3.33;3.07;;;12.10;99.90;;;;;;5114111;28;20415;-68
2023/12/13 05:55:39;;;;;;;3.23;3.03;;;12.10;99.90;;;;;;5112328;28;20181;-65
2023/12/13 05:58:05;;;;;;;3.57;3.27;;;12.10;99.90;;;;;;5092179;28;20178;-68
2023/12/13 06:00:31;;;;;;;5.13;3.30;;;12.10;99.90;;;;;;5103744;28;20205;-68
2023/12/13 06:02:58;;;;;;;3.97;3.67;;;12.10;99.90;;;;;;5103632;28;20176;-68
2023/12/13 06:05:24;;;;;;;3.10;3.00;;;12.10;99.90;;;;;;5112194;28;20421;-69
2023/12/13 06:07:50;;;;;;;2.90;2.60;;;12.10;99.90;;;;;;5114672;28;20404;-69
2023/12/13 06:10:17;;;;;;;4.20;3.80;;;12.10;99.90;;;;;;5108139;28;20788;-67
2023/12/13 06:12:43;;;;;;;4.03;3.23;;;12.00;99.90;;;;;;5095746;28;20426;-67
2023/12/13 06:15:09;;;;;;;4.43;3.63;;;12.00;99.90;;;;;;5082517;28;20464;-67
2023/12/13 06:17:35;;;;;;;3.90;3.60;;;12.00;99.90;;;;;;5098691;28;20833;-68
2023/12/13 06:20:01;;;;;;;3.90;2.87;;;12.00;99.90;;;;;;5105050;28;20452;-66
2023/12/13 06:22:27;;;;;;;6.83;4.00;;;12.00;99.90;;;;;;5091110;28;20476;-73
2023/12/13 06:24:53;;;;;;;8.53;5.23;;;12.00;99.90;;;;;;5101571;28;20915;-67
2023/12/13 06:27:19;;;;;;;3.63;3.30;;;12.00;99.90;;;;;;5091864;28;20312;-66
2023/12/13 06:29:45;;;;;;;5.13;4.23;;;11.90;99.90;;;;;;5095864;28;20181;-67
2023/12/13 06:32:11;;;;;;;3.70;3.40;;;11.90;99.90;;;;;;5094430;28;20474;-63
2023/12/13 06:34:37;;;;;;;3.80;3.10;;;12.00;99.90;;;;;;5094994;28;20625;-67
2023/12/13 06:37:03;;;;;;;7.97;3.67;;;12.00;99.90;;;;;;5096829;28;20187;-67
2023/12/13 06:39:29;;;;;;;4.83;4.43;;;12.00;99.90;;;;;;5092796;28;20911;-64
2023/12/13 06:41:55;;;;;;;5.10;4.20;;;12.00;99.90;;;;;;5092114;28;20451;-65
2023/12/13 06:44:21;;;;;;;6.93;4.00;;;12.00;99.90;;;;;;5092434;28;20185;-64
2023/12/13 06:46:47;;;;;;;7.07;4.03;;;12.00;99.90;;;;;;5096825;28;20777;-62
2023/12/13 06:49:13;;;;;;;5.40;4.60;;;12.00;99.90;;;;;;5091636;28;20425;-63
2023/12/13 06:51:39;;;;;;;7.10;4.90;;;11.90;99.90;;;;;;5098268;28;20182;-65
2023/12/13 06:54:08;;;;;;;3.60;3.40;;;11.90;99.90;;;;;;5097306;28;20259;-64
2023/12/13 06:56:34;;;;;;;5.10;3.70;;;11.90;99.90;;;;;;5098090;28;20258;-65
2023/12/13 06:59:00;;;;;;;4.80;4.40;;;12.00;99.90;;;;;;5096759;28;20452;-65
2023/12/13 07:01:26;;;;;;;4.77;4.30;;;12.20;99.90;;;;;;5089715;28;20483;-62
2023/12/13 07:03:52;;;;;;;4.70;3.93;;;11.90;99.90;;;;;;5094131;28;20657;-64
2023/12/13 07:06:18;;;;;;;5.43;4.00;;;11.90;99.90;;;;;;5091778;28;20639;-64
2023/12/13 07:08:45;;;;;;;4.83;4.23;;;11.90;99.90;;;;;;5098968;28;20425;-64
2023/12/13 07:11:11;;;;;;;4.47;3.97;;;11.90;99.90;;;;;;5092889;28;20436;-64
2023/12/13 07:13:37;;;;;;;4.10;3.70;;;11.90;99.90;;;;;;5091523;28;20474;-64
2023/12/13 07:16:03;;;;;;;4.30;3.90;;;11.90;99.90;;;;;;5105059;28;20465;-65
2023/12/13 07:18:29;;;;;;;5.93;5.07;;;11.90;99.90;;;;;;5093782;28;20260;-64
2023/12/13 07:20:55;;;;;;;6.67;4.83;;;11.90;99.90;;;;;;5091891;28;20540;-65
2023/12/13 07:23:21;;;;;;;6.70;6.07;;;11.90;99.90;;;;;;5092344;28;20466;-65
2023/12/13 07:25:46;;;;;;;5.10;4.70;;;11.90;99.90;;;;;;5095735;28;20177;-65
2023/12/13 07:28:13;;;;;;;6.10;5.30;;;11.90;99.90;;;;;;5091343;28;20639;-65
2023/12/13 07:30:41;;;;;;;4.70;4.27;;;11.90;99.90;;;;;;5091320;28;20195;-64
2023/12/13 07:33:08;;;;;;;3.97;3.57;;;11.90;99.90;;;;;;5090845;28;20483;-65
2023/12/13 07:35:34;;;;;;;3.73;3.47;;;11.90;99.90;;;;;;5099483;28;20813;-64
2023/12/13 07:38:01;;;;;;;3.50;3.10;;;11.90;99.90;;;;;;5072325;28;20568;-64
2023/12/13 07:40:27;;;;;;;4.80;3.50;;;11.90;99.90;;;;;;5095519;28;20524;-65
2023/12/13 07:42:53;;;;;;;5.40;3.17;;;11.90;99.90;;;;;;5099306;28;20514;-65
2023/12/13 07:45:20;;;;;;;3.77;3.40;;;11.90;99.90;;;;;;5090000;28;20226;-63
2023/12/13 07:47:48;;;;;;;4.03;3.70;;;12.00;99.90;;;;;;5090359;28;20626;-62
2023/12/13 07:50:14;;;;;;;3.47;3.13;;;12.20;99.90;;;;;;5110804;28;20405;-63
2023/12/13 07:52:40;;;;;;;4.73;4.33;;;12.60;99.90;;;;;;5097745;28;20553;-63
2023/12/13 07:55:06;;;;;;;4.60;4.20;;;12.90;99.90;;;;;;5089816;28;20190;-63
2023/12/13 07:57:32;;;;;;;8.20;7.40;;;13.10;99.90;;;;;;5069774;28;20693;-63
2023/12/13 07:59:57;;;;;;;5.60;4.20;;;13.30;99.90;;;;;;5104789;28;20526;-63
2023/12/13 08:02:24;;;;;;;5.57;5.17;;;13.50;99.90;;;;;;5103574;28;20571;-62
2023/12/13 08:04:50;;;;;;;6.60;3.40;;;13.70;99.90;;;;;;5093825;28;20544;-62
2023/12/13 08:07:16;;;;;;;5.77;4.90;;;13.90;99.90;;;;;;5103598;28;20512;-62
2023/12/13 08:09:43;;;;;;;4.00;3.60;;;14.10;99.90;;;;;;5098180;28;20956;-63
2023/12/13 08:12:09;;;;;;;4.57;4.27;;;14.20;99.90;;;;;;5093598;28;20419;-61
2023/12/13 08:14:34;;;;;;;5.70;5.30;;;14.20;99.90;;;;;;5094186;28;20487;-61
2023/12/13 08:17:03;;;;;;;4.30;4.00;;;14.30;99.90;;;;;;5102701;28;20439;-61
2023/12/13 08:19:30;;;;;;;5.13;4.77;;;14.40;99.90;;;;;;5091345;28;20217;-62
2023/12/13 08:21:56;;;;;;;3.43;3.20;;;14.50;99.90;;;;;;5090854;28;20446;-62
2023/12/13 08:24:21;;;;;;;4.80;4.40;;;14.50;99.90;;;;;;5090275;28;20433;-61
2023/12/13 08:26:47;;;;;;;5.90;5.00;;;14.50;99.90;;;;;;5091036;28;20176;-62
2023/12/13 08:29:13;;;;;;;5.83;3.57;;;14.60;99.90;;;;;;5094680;28;20173;-61
2023/12/13 08:31:38;;;;;;;3.13;2.83;;;14.50;99.90;;;;;;5089163;28;20189;-62
2023/12/13 08:34:04;;;;;;;4.93;4.33;;;14.60;99.90;;;;;;5090957;28;20255;-61
2023/12/13 08:36:30;;;;;;;5.33;3.60;;;14.60;99.90;;;;;;5108567;28;20624;-61
2023/12/13 08:38:55;;;;;;;6.20;3.10;;;14.60;99.90;;;;;;5101781;28;20186;-62
2023/12/13 08:41:21;;;;;;;4.30;2.80;;;14.60;99.90;;;;;;5094755;28;20201;-62
2023/12/13 08:43:47;;;;;;;3.20;3.00;;;14.60;99.90;;;;;;5102910;28;20231;-72
2023/12/13 08:46:13;;;;;;;5.57;2.90;;;14.70;99.90;;;;;;5108744;28;20272;-74
2023/12/13 08:48:38;;;;;;;5.43;3.80;;;14.50;99.90;;;;;;5110725;28;20250;-73
2023/12/13 08:51:04;;;;;;;6.27;3.37;;;14.30;99.90;;;;;;5111031;28;20180;-73
2023/12/13 08:53:30;;;;;;;6.17;4.70;;;14.10;99.90;;;;;;5104264;28;20213;-69
2023/12/13 08:55:56;;;;;;;279.37;157.53;;;13.90;99.90;;;;;;5093393;28;20501;-73
2023/12/13 08:58:21;;;;;;;24.07;18.37;;;13.70;99.90;;;;;;5094766;28;20211;-67
2023/12/13 09:00:47;;;;;;;10.40;6.13;;;13.60;99.90;;;;;;5094636;28;20207;-59
2023/12/13 09:03:13;;;;;;;4.10;3.57;;;13.40;99.90;;;;;;5095026;28;20569;-60
2023/12/13 09:05:39;;;;;;;4.27;3.00;;;13.30;99.90;;;;;;5093201;28;20220;-58
2023/12/13 09:08:05;;;;;;;4.43;4.03;;;13.10;99.90;;;;;;5099221;28;20429;-59
2023/12/13 09:10:34;;;;;;;4.60;3.20;;;13.00;99.90;;;;;;5092322;28;20266;-58
2023/12/13 09:13:04;;;;;;;9.03;5.00;;;12.90;99.90;;;;;;5094347;28;21949;-58
2023/12/13 09:15:33;;;;;;;6.03;3.10;;;12.80;99.90;;;;;;5092226;28;20457;-57
2023/12/13 09:17:59;;;;;;;6.80;3.73;;;12.80;99.90;;;;;;5099949;28;20436;-59
2023/12/13 09:20:26;;;;;;;6.00;4.10;;;12.70;99.90;;;;;;5090520;28;21071;-58
2023/12/13 09:22:51;;;;;;;6.33;4.57;;;12.60;99.90;;;;;;5095293;28;20211;-57
2023/12/13 09:25:17;;;;;;;4.97;4.57;;;12.60;99.90;;;;;;5099676;28;20456;-58
2023/12/13 09:27:44;;;;;;;5.37;4.90;;;12.50;99.90;;;;;;5092382;28;20184;-59
2023/12/13 09:30:11;;;;;;;10.93;4.60;;;12.50;99.90;;;;;;5113845;28;20179;-57
2023/12/13 09:32:38;;;;;;;4.00;3.20;;;12.50;99.90;;;;;;5112533;28;20838;-57
2023/12/13 09:35:04;;;;;;;5.67;3.97;;;12.60;99.90;;;;;;5115146;28;20471;-57
2023/12/13 09:37:30;;;;;;;7.00;5.37;;;12.60;99.90;;;;;;5112557;28;20507;-58
2023/12/13 09:39:56;;;;;;;9.20;3.90;;;12.70;99.90;;;;;;5113066;28;20417;-57
2023/12/13 09:42:24;;;;;;;5.90;5.40;;;12.80;99.90;;;;;;5114291;28;20478;-62
2023/12/13 09:44:50;;;;;;;6.23;3.90;;;12.80;99.90;;;;;;5114275;28;20418;-58
2023/12/13 09:47:17;;;;;;;6.13;5.03;;;12.80;99.90;;;;;;5113168;28;20815;-57
2023/12/13 09:49:44;;;;;;;5.70;4.23;;;12.80;99.90;;;;;;5112410;28;20408;-58
2023/12/13 09:52:11;;;;;;;5.57;5.07;;;12.80;99.90;;;;;;5114562;28;20810;-57
2023/12/13 09:54:39;;;;;;;5.63;5.10;;;12.80;99.90;;;;;;5109760;28;20412;-57
2023/12/13 09:57:08;;;;;;;6.93;5.33;;;12.80;99.90;;;;;;5112035;28;20407;-58
2023/12/13 09:59:35;;;;;;;5.50;5.00;;;12.80;99.90;;;;;;5113374;28;20457;-58
2023/12/13 10:02:01;;;;;;;9.10;5.30;;;12.70;99.90;;;;;;5107524;28;20847;-58
2023/12/13 10:04:28;;;;;;;5.87;5.27;;;12.70;99.90;;;;;;5114083;28;20405;-57
2023/12/13 10:06:57;;;;;;;8.27;4.30;;;12.70;99.90;;;;;;5111603;28;20516;-57
2023/12/13 10:09:29;;;;;;;4.97;3.60;;;12.70;99.90;;;;;;5112905;28;20809;-57
2023/12/13 10:11:55;;;;;;;4.80;3.60;;;12.70;99.90;;;;;;5114636;28;20411;-57
2023/12/13 10:14:21;;;;;;;3.63;3.07;;;12.70;99.90;;;;;;5112133;28;20464;-58
2023/12/13 10:16:47;;;;;;;4.87;4.30;;;12.70;99.90;;;;;;5111058;28;20744;-57
2023/12/13 10:19:12;;;;;;;4.57;3.47;;;12.70;99.90;;;;;;5114275;28;20625;-58
2023/12/13 10:21:38;;;;;;;6.77;3.10;;;12.70;99.90;;;;;;5111953;28;20202;-58
2023/12/13 10:24:08;;;;;;;4.67;3.47;;;12.70;99.90;;;;;;5111145;28;20178;-57
2023/12/13 10:26:38;;;;;;;4.83;2.73;;;12.70;99.90;;;;;;5111785;28;20178;-58
2023/12/13 10:29:04;;;;;;;6.60;4.00;;;12.70;99.90;;;;;;5112850;28;20420;-58
2023/12/13 10:31:31;;;;;;;4.77;2.90;;;12.70;99.90;;;;;;5110282;28;20416;-57
2023/12/13 10:33:57;;;;;;;4.30;4.00;;;12.70;99.90;;;;;;5112560;28;20791;-57
2023/12/13 10:36:27;;;;;;;3.63;3.20;;;12.70;99.90;;;;;;5111805;28;20425;-57
2023/12/13 10:38:53;;;;;;;5.83;2.90;;;12.80;99.90;;;;;;5113817;28;20725;-58
2023/12/13 10:41:27;;;;;;;4.20;4.00;;;12.70;99.90;;;;;;5101528;28;20489;-57
2023/12/13 10:43:58;;;;;;;4.50;3.43;;;12.70;99.90;;;;;;5097411;28;20432;-57
2023/12/13 10:46:33;;;;;;;5.37;3.47;;;12.70;99.90;;;;;;5113884;28;20458;-57
2023/12/13 10:48:59;;;;;;;4.23;3.70;;;12.50;99.90;;;;;;5111316;28;20766;-57
2023/12/13 10:51:27;;;;;;;3.07;2.83;;;12.20;99.90;;;;;;5111039;28;20516;-58
2023/12/13 10:53:53;;;;;;;8.00;4.40;;;12.30;99.90;;;;;;5114110;28;20404;-57
2023/12/13 10:56:19;;;;;;;3.27;3.00;;;12.30;99.90;;;;;;5111816;28;20418;-57
2023/12/13 10:58:45;;;;;;;2.50;2.30;;;12.50;99.90;;;;;;5109691;28;20429;-58
2023/12/13 11:01:12;;;;;;;4.57;4.30;;;12.70;99.90;;;;;;5112245;28;20489;-59
2023/12/13 11:03:51;;;;;;;4.47;3.10;;;12.80;99.90;;;;;;5111761;28;20182;-57
2023/12/13 11:06:17;;;;;;;4.57;3.73;;;12.90;99.90;;;;;;5112826;28;20953;-57
2023/12/13 11:08:44;;;;;;;4.30;3.33;;;13.10;99.90;;;;;;5110301;28;20418;-57
2023/12/13 11:11:15;;;;;;;2.50;2.30;;;13.50;99.90;;;;;;5113107;28;20398;-57
2023/12/13 11:13:48;;;;;;;3.83;2.27;;;14.10;99.90;;;;;;5111178;28;20746;-59
2023/12/13 11:16:25;;;;;;;3.13;2.90;;;14.50;99.90;;;;;;5111453;28;20464;-58
2023/12/13 11:18:53;;;;;;;5.37;2.90;;;15.00;99.90;;;;;;5108322;28;20455;-58
2023/12/13 11:21:26;;;;;;;4.80;4.43;;;15.40;99.90;;;;;;5113189;28;20444;-58
2023/12/13 11:23:54;;;;;;;3.63;3.20;;;15.50;99.90;;;;;;5110820;28;20461;-61
2023/12/13 11:26:22;;;;;;;5.20;4.70;;;15.50;99.90;;;;;;5108625;28;20908;-61
2023/12/13 11:28:54;;;;;;;4.90;4.50;;;15.40;99.90;;;;;;5111045;28;20857;-61
2023/12/13 11:31:24;;;;;;;3.87;2.83;;;15.20;99.90;;;;;;5110875;28;20602;-61
2023/12/13 11:33:55;;;;;;;4.53;4.13;;;14.90;99.90;;;;;;5110315;28;20928;-61
2023/12/13 11:36:22;;;;;;;8.70;3.90;;;14.40;99.90;;;;;;5112477;28;20390;-63
2023/12/13 11:38:54;;;;;;;6.03;3.47;;;14.30;99.90;;;;;;5112173;28;20409;-61
2023/12/13 11:41:19;;;;;;;7.00;6.40;;;14.30;99.90;;;;;;5109457;28;20451;-61
2023/12/13 11:43:46;;;;;;;4.23;3.70;;;14.30;99.90;;;;;;5110697;28;20784;-61
2023/12/13 11:46:13;;;;;;;3.53;3.30;;;14.50;99.90;;;;;;5112860;28;20215;-61
2023/12/13 11:48:38;;;;;;;3.90;3.47;;;14.30;99.90;;;;;;5107797;28;20434;-62
2023/12/13 11:51:04;;;;;;;4.70;3.00;;;14.50;99.90;;;;;;5111039;28;20413;-61
2023/12/13 11:53:30;;;;;;;3.93;3.70;;;14.80;99.90;;;;;;5112318;28;20257;-64
2023/12/13 11:55:57;;;;;;;3.77;3.30;;;15.00;99.90;;;;;;5111064;28;20203;-61
2023/12/13 11:58:26;;;;;;;4.80;3.93;;;14.90;99.90;;;;;;5111038;28;20481;-62
2023/12/13 12:00:52;;;;;;;4.40;4.10;;;14.80;99.90;;;;;;5078434;28;21004;-61
2023/12/13 12:03:18;;;;;;;3.97;3.43;;;15.00;99.90;;;;;;5105179;28;20497;-61
2023/12/13 12:05:44;;;;;;;3.90;3.57;;;14.90;99.90;;;;;;5104189;28;20304;-61
2023/12/13 12:08:11;;;;;;;3.77;3.23;;;14.90;99.90;;;;;;5111046;28;20547;-61
2023/12/13 12:10:37;;;;;;;5.57;2.80;;;15.00;99.90;;;;;;5110213;28;20174;-61
2023/12/13 12:13:03;;;;;;;6.43;3.00;;;14.90;99.90;;;;;;5112512;28;20393;-61
2023/12/13 12:15:32;;;;;;;5.40;3.07;;;14.90;99.90;;;;;;5092631;28;20674;-61
2023/12/13 12:17:59;;;;;;;3.77;3.00;;;14.90;99.90;;;;;;5090273;28;20491;-61
2023/12/13 12:20:26;;;;;;;2.70;2.37;;;14.60;99.90;;;;;;5092553;28;20401;-61
2023/12/13 12:22:52;;;;;;;6.03;5.40;;;14.30;99.90;;;;;;5098589;28;20442;-61
2023/12/13 12:25:20;;;;;;;4.37;4.00;;;14.30;99.90;;;;;;5095390;28;20784;-61
2023/12/13 12:27:49;;;;;;;4.13;2.93;;;14.50;99.90;;;;;;5099145;28;20424;-58
2023/12/13 12:30:17;;;;;;;4.40;3.10;;;14.70;99.90;;;;;;5094827;28;20433;-57
2023/12/13 12:32:44;;;;;;;6.17;3.60;;;14.60;99.90;;;;;;5091796;28;20931;-57
2023/12/13 12:35:09;;;;;;;247.60;153.73;;;14.60;99.90;;;;;;5111313;28;20443;-57
2023/12/13 12:37:35;;;;;;;33.07;20.80;;;14.50;99.90;;;;;;5107036;28;20423;-58
2023/12/13 12:40:06;;;;;;;6.03;4.67;;;14.30;99.90;;;;;;5114382;28;20177;-58
2023/12/13 12:42:32;;;;;;;5.10;3.70;;;14.20;99.90;;;;;;5116172;28;20461;-57